Карточка аэропорта UHMA

Внимание!
Информация на этой странице в стадии наполнения.
Если вы не увидели какой-то информации, или заметили неточность - пожалуйста сообщите нам!
Спасибо!
Команда RU-STAFF
Название аэропортаУгольный
Название аэропорта (англ.)Ugolny
Превышение194 ft. (59.1 m.)
Координаты64°44.1', 177°44.28'
Высота перехода1600m
Эшелон переходаQFE>=755mm:FL070; QFE<755=>728:FL080; QFE<728:FL090
Коды ответчика6501-6537
Зона ОрВДМагадан РПИ (UHMM)
Данные METARUHMA 131830Z 08002MPS CAVOK 10/10 Q1004 R02/////// NOSIG RMK MID 09002MPS END R02/08002MPS QFE749/0999
Проноз погоды (TAF)UHMA 131653Z 1318/1418 34003MPS 9999 SCT033 TEMPO 1318/1321 06006MPS 0200 FG BKN002 TEMPO 1321/1410 03008G13MPS 5000 -SHRA BR SCT003 BKN017CB BECMG 1410/1412 14003MPS TEMPO 1412/1418 10008MPS 5000 BR SCT004
NOTAMshow/hide NOTAM
AWOS   TABLE

Информация о ВПП


Диспетчерские позиции

Позывной Наименование органа УВД Частота
UHMA_APPАнадырь-Подход124.0
UHMA_TWRАнадырь-Старт124.0



Спутниковое изображение